Time;durP1;ratioP1;P1;durP2;ratioP2;P2;SDS_P1;SDS_P2;PMS_P1;PMS_P2;Temp;Humidity;BMP_temperature;BMP_pressure;BME280_temperature;BME280_humidity;BME280_pressure;Samples;Min_cycle;Max_cycle;Signal;HPM_P1;HPM_P2
2021/05/28 00:02:04;;;;;;;4.40;3.07;;;12.40;99.90;;;;;;5002334;28;20508;-45
2021/05/28 00:04:30;;;;;;;5.50;3.50;;;12.40;99.90;;;;;;4995640;28;20458;-50
2021/05/28 00:06:59;;;;;;;7.00;3.40;;;12.40;99.90;;;;;;5000914;28;20450;-45
2021/05/28 00:09:26;;;;;;;4.13;3.73;;;12.30;99.90;;;;;;5003195;28;20522;-47
2021/05/28 00:11:53;;;;;;;5.40;3.87;;;12.30;99.90;;;;;;5002088;28;20465;-48
2021/05/28 00:14:20;;;;;;;4.33;3.93;;;12.30;99.90;;;;;;5002748;28;20474;-49
2021/05/28 00:16:46;;;;;;;4.43;3.70;;;12.20;99.90;;;;;;4999265;28;20457;-51
2021/05/28 00:19:12;;;;;;;3.70;3.40;;;12.20;99.90;;;;;;5011652;28;20461;-46
2021/05/28 00:21:38;;;;;;;3.93;3.33;;;12.20;99.90;;;;;;5001471;28;20485;-51
2021/05/28 00:24:06;;;;;;;6.80;4.17;;;12.20;99.90;;;;;;4999505;28;20812;-47
2021/05/28 00:26:33;;;;;;;6.93;3.23;;;12.30;99.90;;;;;;4999758;28;20452;-48
2021/05/28 00:28:59;;;;;;;4.10;3.23;;;12.40;99.90;;;;;;5000626;28;20470;-50
2021/05/28 00:31:25;;;;;;;5.13;4.27;;;12.40;99.90;;;;;;5000840;28;20776;-52
2021/05/28 00:33:51;;;;;;;6.67;4.17;;;12.30;99.90;;;;;;5006111;28;20457;-59
2021/05/28 00:36:18;;;;;;;5.27;4.10;;;12.30;99.90;;;;;;4998202;28;20462;-48
2021/05/28 00:38:44;;;;;;;4.27;3.87;;;12.30;99.90;;;;;;4997003;28;20458;-47
2021/05/28 00:41:11;;;;;;;4.90;4.20;;;12.30;99.90;;;;;;4997339;28;20488;-46
2021/05/28 00:43:38;;;;;;;4.33;3.93;;;12.40;99.90;;;;;;4997142;28;20458;-45
2021/05/28 00:46:04;;;;;;;7.10;4.77;;;12.40;99.90;;;;;;4998129;28;20454;-48
2021/05/28 00:48:30;;;;;;;4.03;3.63;;;12.40;99.90;;;;;;4998632;28;20834;-46
2021/05/28 00:50:57;;;;;;;3.90;3.50;;;12.40;99.90;;;;;;4995066;28;20445;-48
2021/05/28 00:53:24;;;;;;;4.90;4.30;;;12.40;99.90;;;;;;4995784;28;20457;-45
2021/05/28 00:55:51;;;;;;;4.03;3.63;;;12.40;99.90;;;;;;4997090;28;20450;-47
2021/05/28 00:58:18;;;;;;;4.87;3.90;;;12.40;99.90;;;;;;4996730;28;20477;-46
2021/05/28 01:00:47;;;;;;;5.27;4.03;;;12.40;99.90;;;;;;4995018;28;20990;-46
2021/05/28 01:03:13;;;;;;;5.53;3.60;;;12.30;99.90;;;;;;4995665;28;20465;-47
2021/05/28 01:05:39;;;;;;;4.27;3.87;;;12.40;99.90;;;;;;4993495;28;20520;-49
2021/05/28 01:08:06;;;;;;;4.80;3.47;;;12.40;99.90;;;;;;4988861;28;20462;-51
2021/05/28 01:10:32;;;;;;;4.67;4.17;;;12.40;99.90;;;;;;4975437;28;20461;-45
2021/05/28 01:13:03;;;;;;;4.63;3.50;;;12.40;99.90;;;;;;4978042;28;20450;-45
2021/05/28 01:15:30;;;;;;;8.53;4.40;;;12.40;99.90;;;;;;4977824;28;20466;-52
2021/05/28 01:17:57;;;;;;;4.73;4.23;;;12.40;99.90;;;;;;4984462;28;20462;-46
2021/05/28 01:20:23;;;;;;;8.33;5.17;;;12.40;99.90;;;;;;4980343;28;20786;-49
2021/05/28 01:22:52;;;;;;;5.93;4.03;;;12.40;99.90;;;;;;4975204;28;20447;-46
2021/05/28 01:25:19;;;;;;;6.60;4.03;;;12.30;99.90;;;;;;4976195;28;20861;-49
2021/05/28 01:27:45;;;;;;;5.33;4.03;;;12.30;99.90;;;;;;4978954;28;20528;-46
2021/05/28 01:30:13;;;;;;;5.30;4.80;;;12.40;99.90;;;;;;4976159;28;20457;-50
2021/05/28 01:32:39;;;;;;;5.10;4.60;;;12.30;99.90;;;;;;4977141;28;20458;-44
2021/05/28 01:35:06;;;;;;;5.10;3.83;;;12.40;99.90;;;;;;4979222;28;20450;-44
2021/05/28 01:37:32;;;;;;;5.23;4.70;;;12.40;99.90;;;;;;4978514;28;20474;-47
2021/05/28 01:39:59;;;;;;;6.03;4.50;;;12.30;99.90;;;;;;4977051;28;20830;-46
2021/05/28 01:42:25;;;;;;;6.20;4.93;;;12.30;99.90;;;;;;4977140;28;20453;-49
2021/05/28 01:44:53;;;;;;;4.90;4.40;;;12.20;99.90;;;;;;4976755;28;20474;-49
2021/05/28 01:47:20;;;;;;;6.47;4.20;;;12.20;99.90;;;;;;4977034;28;20454;-50
2021/05/28 01:49:46;;;;;;;6.60;4.50;;;12.20;99.90;;;;;;4976693;28;20922;-45
2021/05/28 01:52:13;;;;;;;6.03;4.87;;;12.20;99.90;;;;;;4977048;28;20442;-46
2021/05/28 01:54:40;;;;;;;6.23;4.70;;;12.30;99.90;;;;;;4978873;28;20967;-45
2021/05/28 01:57:10;;;;;;;9.83;5.13;;;12.30;99.90;;;;;;4985643;28;20981;-48
2021/05/28 01:59:36;;;;;;;4.80;4.13;;;12.30;99.90;;;;;;4983255;28;20446;-44
2021/05/28 02:02:02;;;;;;;5.27;4.77;;;12.20;99.90;;;;;;4984097;28;20490;-44
2021/05/28 02:04:29;;;;;;;6.13;4.87;;;12.30;99.90;;;;;;4981686;28;20447;-46
2021/05/28 02:06:56;;;;;;;5.37;4.70;;;12.20;99.90;;;;;;4982548;28;20454;-47
2021/05/28 02:09:22;;;;;;;5.30;4.77;;;12.20;99.90;;;;;;4982319;28;20457;-46
2021/05/28 02:11:48;;;;;;;5.50;4.67;;;12.20;99.90;;;;;;4981054;28;20458;-50
2021/05/28 02:14:16;;;;;;;6.27;4.70;;;12.20;99.90;;;;;;4978333;28;20453;-49
2021/05/28 02:16:42;;;;;;;6.43;5.40;;;12.10;99.90;;;;;;4979647;28;20892;-47
2021/05/28 02:19:09;;;;;;;5.97;4.33;;;12.10;99.90;;;;;;4979137;28;20462;-44
2021/05/28 02:21:36;;;;;;;5.80;4.57;;;12.00;99.90;;;;;;4981500;28;20542;-45
2021/05/28 02:24:04;;;;;;;7.33;4.40;;;12.00;99.90;;;;;;4978940;28;20442;-49
2021/05/28 02:26:30;;;;;;;4.67;4.20;;;11.90;99.90;;;;;;4979537;28;20446;-49
2021/05/28 02:28:56;;;;;;;6.70;5.03;;;11.90;99.90;;;;;;4980899;28;20494;-45
2021/05/28 02:31:23;;;;;;;6.07;5.37;;;12.00;99.90;;;;;;4982968;28;20775;-51
2021/05/28 02:33:49;;;;;;;5.90;4.53;;;12.00;99.90;;;;;;4982645;28;20450;-52
2021/05/28 02:36:15;;;;;;;5.50;4.33;;;11.90;99.90;;;;;;4982472;28;20463;-48
2021/05/28 02:38:41;;;;;;;9.63;4.80;;;11.90;99.90;;;;;;4982656;28;20450;-46
2021/05/28 02:41:07;;;;;;;4.93;4.43;;;11.90;99.90;;;;;;4981691;28;20479;-49
2021/05/28 02:43:34;;;;;;;6.40;4.33;;;11.90;99.90;;;;;;4982237;28;20905;-44
2021/05/28 02:46:00;;;;;;;4.87;3.63;;;11.90;99.90;;;;;;4982438;28;20455;-46
2021/05/28 02:48:27;;;;;;;5.57;3.77;;;11.90;99.90;;;;;;4978568;28;20482;-43
2021/05/28 02:50:53;;;;;;;5.50;4.33;;;11.90;99.90;;;;;;4980743;28;20939;-49
2021/05/28 02:53:19;;;;;;;12.50;4.37;;;11.90;99.90;;;;;;4981975;28;20459;-45
2021/05/28 02:55:46;;;;;;;4.70;3.90;;;11.80;99.90;;;;;;4981685;28;20501;-46
2021/05/28 02:58:12;;;;;;;4.10;3.53;;;11.90;99.90;;;;;;4981426;28;20913;-49
2021/05/28 03:00:38;;;;;;;4.27;3.50;;;11.90;99.90;;;;;;4981870;28;20493;-47
2021/05/28 03:03:05;;;;;;;5.93;4.20;;;11.90;99.90;;;;;;4982417;28;20529;-47
2021/05/28 03:05:32;;;;;;;4.20;3.80;;;11.80;99.90;;;;;;4981805;28;20453;-49
2021/05/28 03:07:58;;;;;;;4.10;3.70;;;11.80;99.90;;;;;;4986700;28;20816;-49
2021/05/28 03:10:25;;;;;;;4.20;3.47;;;11.70;99.90;;;;;;4982106;28;20439;-50
2021/05/28 03:12:51;;;;;;;9.00;3.43;;;11.70;99.90;;;;;;4982850;28;20482;-47
2021/05/28 03:15:17;;;;;;;4.73;3.50;;;11.70;99.90;;;;;;4979133;28;20454;-46
2021/05/28 03:17:45;;;;;;;4.20;3.50;;;11.70;99.90;;;;;;4977364;28;20465;-50
2021/05/28 03:20:19;;;;;;;4.03;3.03;;;11.70;99.90;;;;;;4978230;28;20491;-49
2021/05/28 03:22:46;;;;;;;3.33;3.03;;;11.70;99.90;;;;;;4986083;28;20945;-50
2021/05/28 03:25:13;;;;;;;4.17;3.00;;;11.70;99.90;;;;;;4981754;28;20813;-49
2021/05/28 03:27:40;;;;;;;4.63;3.30;;;11.70;99.90;;;;;;4982770;28;20972;-46
2021/05/28 03:30:08;;;;;;;3.80;2.80;;;11.70;99.90;;;;;;4980868;28;20455;-49
2021/05/28 03:32:35;;;;;;;4.97;3.07;;;11.70;99.90;;;;;;4981266;28;20925;-46
2021/05/28 03:35:01;;;;;;;2.83;2.53;;;11.70;99.90;;;;;;4989296;28;20522;-51
2021/05/28 03:37:27;;;;;;;2.73;2.33;;;11.60;99.90;;;;;;4981767;28;20462;-48
2021/05/28 03:39:54;;;;;;;3.10;2.77;;;11.60;99.90;;;;;;4981376;28;20450;-46
2021/05/28 03:42:20;;;;;;;2.53;2.23;;;11.50;99.90;;;;;;4981638;28;20447;-47
2021/05/28 03:44:47;;;;;;;5.13;2.40;;;11.40;99.90;;;;;;4982131;28;20443;-50
2021/05/28 03:47:15;;;;;;;4.33;2.30;;;11.40;99.90;;;;;;4981304;28;20446;-47
2021/05/28 03:49:41;;;;;;;3.97;2.37;;;11.30;99.90;;;;;;4981020;28;20482;-46
2021/05/28 03:52:08;;;;;;;4.20;2.67;;;11.40;99.90;;;;;;4979221;28;20490;-50
2021/05/28 03:54:34;;;;;;;4.17;2.70;;;11.40;99.90;;;;;;4978954;28;20453;-47
2021/05/28 03:57:01;;;;;;;3.10;2.47;;;11.40;99.90;;;;;;4978659;28;20451;-45
2021/05/28 03:59:27;;;;;;;5.03;2.70;;;11.40;99.90;;;;;;4976487;28;20458;-45
2021/05/28 04:01:53;;;;;;;2.50;2.30;;;11.40;99.90;;;;;;4976535;28;20518;-50
2021/05/28 04:04:20;;;;;;;2.93;2.50;;;11.50;99.90;;;;;;4976712;28;20423;-44
2021/05/28 04:06:46;;;;;;;2.77;2.43;;;11.60;99.90;;;;;;4979215;28;20458;-50
2021/05/28 04:09:12;;;;;;;3.50;2.70;;;11.60;99.90;;;;;;4978240;28;20459;-50
2021/05/28 04:11:38;;;;;;;4.67;2.43;;;11.60;99.90;;;;;;4978778;28;20454;-47
2021/05/28 04:14:05;;;;;;;5.57;2.73;;;11.60;99.90;;;;;;4976977;28;20470;-48
2021/05/28 04:16:31;;;;;;;5.20;2.97;;;11.60;99.90;;;;;;4977095;28;20512;-47
2021/05/28 04:18:57;;;;;;;6.23;3.40;;;11.60;99.90;;;;;;4977157;28;20462;-50
2021/05/28 04:21:24;;;;;;;4.40;3.37;;;11.60;99.90;;;;;;4978620;28;20889;-51
2021/05/28 04:23:50;;;;;;;4.10;3.30;;;11.60;99.90;;;;;;4980118;28;20477;-49
2021/05/28 04:26:16;;;;;;;3.03;2.67;;;11.60;99.90;;;;;;4977995;28;20770;-47
2021/05/28 04:28:42;;;;;;;5.20;3.40;;;11.60;99.90;;;;;;4977741;28;20447;-46
2021/05/28 04:31:09;;;;;;;4.27;3.50;;;11.60;99.90;;;;;;4977732;28;20447;-46
2021/05/28 04:33:35;;;;;;;4.00;3.60;;;11.60;99.90;;;;;;4977955;28;20775;-49
2021/05/28 04:36:01;;;;;;;3.80;3.40;;;11.60;99.90;;;;;;4978041;28;20470;-49
2021/05/28 04:38:28;;;;;;;3.27;2.73;;;11.60;99.90;;;;;;4979340;28;20450;-52
2021/05/28 04:40:54;;;;;;;4.60;2.93;;;11.70;99.90;;;;;;4979835;28;20478;-50
2021/05/28 04:43:20;;;;;;;4.17;3.00;;;11.80;99.90;;;;;;4979832;28;20457;-52
2021/05/28 04:45:47;;;;;;;3.53;3.23;;;11.80;99.90;;;;;;4979339;28;20490;-50
2021/05/28 04:48:14;;;;;;;3.90;2.63;;;11.90;99.90;;;;;;4976716;28;20490;-46
2021/05/28 04:50:40;;;;;;;3.57;2.57;;;11.90;99.90;;;;;;4977555;28;20901;-47
2021/05/28 04:53:08;;;;;;;7.97;2.90;;;11.90;99.90;;;;;;4978975;28;20981;-46
2021/05/28 04:55:34;;;;;;;5.53;2.53;;;11.90;99.90;;;;;;4975628;28;20442;-51
2021/05/28 04:58:01;;;;;;;3.53;3.10;;;11.90;99.90;;;;;;4979600;28;20451;-47
2021/05/28 05:00:27;;;;;;;3.63;3.20;;;12.00;99.90;;;;;;4978194;28;20570;-45
2021/05/28 05:02:53;;;;;;;3.17;2.60;;;12.00;99.90;;;;;;4977051;28;20455;-44
2021/05/28 05:05:20;;;;;;;5.87;2.90;;;12.00;99.90;;;;;;4977632;28;20453;-47
2021/05/28 05:07:47;;;;;;;4.53;3.87;;;12.00;99.90;;;;;;4977219;28;20469;-46
2021/05/28 05:10:13;;;;;;;3.80;3.40;;;12.10;99.90;;;;;;4977327;28;20487;-51
2021/05/28 05:12:40;;;;;;;4.67;3.43;;;12.10;99.90;;;;;;4977562;28;20461;-46
2021/05/28 05:15:10;;;;;;;9.40;3.50;;;12.10;99.90;;;;;;4977787;28;20933;-44
2021/05/28 05:17:36;;;;;;;5.10;3.90;;;12.10;99.90;;;;;;4977297;28;20912;-43
2021/05/28 05:20:03;;;;;;;4.63;3.43;;;12.10;99.90;;;;;;4976769;28;20901;-49
2021/05/28 05:22:30;;;;;;;4.70;3.67;;;12.30;99.90;;;;;;4982706;28;20471;-45
2021/05/28 05:24:56;;;;;;;7.00;4.37;;;12.30;99.90;;;;;;4988961;28;20913;-47
2021/05/28 05:27:22;;;;;;;6.10;4.17;;;12.40;99.90;;;;;;4979019;28;20446;-46
2021/05/28 05:29:48;;;;;;;6.13;3.90;;;12.20;99.90;;;;;;4979287;28;20461;-48
2021/05/28 05:32:15;;;;;;;5.07;4.60;;;12.20;99.90;;;;;;4981406;28;20457;-51
2021/05/28 05:34:41;;;;;;;4.27;3.87;;;12.20;99.90;;;;;;4982947;28;20455;-48
2021/05/28 05:37:07;;;;;;;5.30;3.97;;;12.20;99.90;;;;;;4982800;28;20443;-49
2021/05/28 05:39:34;;;;;;;6.00;3.43;;;12.10;99.90;;;;;;4982323;28;20442;-47
2021/05/28 05:42:01;;;;;;;6.10;4.10;;;12.20;99.90;;;;;;4980981;28;20483;-52
2021/05/28 05:44:27;;;;;;;6.23;3.97;;;12.00;99.90;;;;;;4982341;28;20474;-49
2021/05/28 05:46:53;;;;;;;3.67;3.37;;;12.00;99.90;;;;;;4978974;28;20461;-46
2021/05/28 05:49:20;;;;;;;6.43;3.87;;;12.00;99.90;;;;;;4978507;28;20957;-51
2021/05/28 05:51:46;;;;;;;5.87;3.10;;;12.00;99.90;;;;;;4979078;28;20462;-45
2021/05/28 05:54:12;;;;;;;5.30;3.57;;;12.00;99.90;;;;;;4979365;28;20546;-50
2021/05/28 05:56:41;;;;;;;5.53;3.63;;;12.00;99.90;;;;;;4980687;28;20809;-48
2021/05/28 05:59:07;;;;;;;4.00;3.60;;;12.10;99.90;;;;;;4980270;28;20825;-47
2021/05/28 06:01:34;;;;;;;4.40;3.77;;;12.10;99.90;;;;;;4980562;28;20489;-45
2021/05/28 06:04:00;;;;;;;4.90;4.30;;;12.10;99.90;;;;;;4980799;28;20774;-44
2021/05/28 06:06:27;;;;;;;6.60;3.80;;;12.10;99.90;;;;;;4980848;28;20458;-49
2021/05/28 06:08:53;;;;;;;6.50;3.97;;;12.20;99.90;;;;;;4980380;28;20490;-48
2021/05/28 06:11:19;;;;;;;5.13;3.63;;;12.20;99.90;;;;;;4979963;28;20447;-51
2021/05/28 06:13:46;;;;;;;4.13;3.73;;;12.10;99.90;;;;;;4980452;28;20462;-48
2021/05/28 06:16:13;;;;;;;3.60;3.30;;;12.10;99.90;;;;;;4980359;28;20455;-50
2021/05/28 06:18:39;;;;;;;4.80;3.70;;;12.10;99.90;;;;;;4980197;28;20454;-50
2021/05/28 06:21:06;;;;;;;4.27;3.40;;;12.20;99.90;;;;;;4978926;28;20542;-44
2021/05/28 06:26:12;;;;;;;3.87;3.30;;;12.30;99.90;;;;;;5683665;23;20485;-48
2021/05/28 06:28:46;;;;;;;4.50;3.30;;;12.30;99.90;;;;;;5000972;28;20453;-46
2021/05/28 06:31:13;;;;;;;4.30;3.33;;;12.40;99.90;;;;;;5001568;28;20426;-48
2021/05/28 06:33:39;;;;;;;4.40;2.97;;;12.50;99.90;;;;;;4997401;28;20905;-46
2021/05/28 06:36:06;;;;;;;4.77;3.50;;;12.50;99.90;;;;;;4997795;28;20525;-49
2021/05/28 06:38:32;;;;;;;4.00;3.60;;;12.40;99.90;;;;;;4999354;28;20458;-49
2021/05/28 06:40:59;;;;;;;5.57;3.87;;;12.50;99.90;;;;;;4999074;28;20512;-48
2021/05/28 06:43:25;;;;;;;5.37;4.43;;;12.40;99.90;;;;;;4998952;28;20449;-48
2021/05/28 06:45:51;;;;;;;4.10;3.70;;;12.40;99.90;;;;;;4999108;28;20476;-50
2021/05/28 06:48:18;;;;;;;3.83;3.33;;;12.50;99.90;;;;;;4999461;28;20457;-45
2021/05/28 06:50:45;;;;;;;4.70;3.70;;;12.50;99.90;;;;;;4999531;28;20438;-47
2021/05/28 06:53:12;;;;;;;4.90;3.33;;;12.50;99.90;;;;;;4999002;28;20449;-49
2021/05/28 06:55:39;;;;;;;6.20;4.93;;;12.50;99.90;;;;;;4998528;28;20581;-46
2021/05/28 06:58:06;;;;;;;3.97;3.57;;;12.50;99.90;;;;;;4999005;28;20454;-44
2021/05/28 07:00:33;;;;;;;4.87;3.27;;;12.50;99.90;;;;;;4998871;28;20490;-48
2021/05/28 07:02:59;;;;;;;5.67;3.57;;;12.60;99.90;;;;;;4998748;28;20461;-49
2021/05/28 07:05:28;;;;;;;4.27;3.87;;;12.60;99.90;;;;;;4998494;28;20505;-52
2021/05/28 07:07:54;;;;;;;3.93;3.53;;;12.70;99.90;;;;;;4998357;28;20460;-51
2021/05/28 07:10:21;;;;;;;4.30;3.80;;;12.80;99.90;;;;;;4998704;28;20465;-49
2021/05/28 07:12:48;;;;;;;3.53;3.23;;;13.00;99.90;;;;;;4998243;28;20446;-45
2021/05/28 07:15:15;;;;;;;6.80;3.50;;;13.00;99.90;;;;;;4998548;28;20454;-47
2021/05/28 07:17:41;;;;;;;3.60;3.30;;;13.10;99.90;;;;;;4998091;28;20783;-47
2021/05/28 07:20:08;;;;;;;4.00;3.60;;;13.10;99.90;;;;;;4998669;28;20454;-44
2021/05/28 07:22:35;;;;;;;8.70;4.10;;;13.10;99.90;;;;;;4998166;28;20445;-45
2021/05/28 07:25:01;;;;;;;4.50;2.97;;;13.10;99.90;;;;;;4995017;28;20463;-50
2021/05/28 07:27:28;;;;;;;4.30;3.87;;;13.10;99.90;;;;;;4998238;28;20477;-46
2021/05/28 07:29:54;;;;;;;7.10;4.30;;;13.20;99.90;;;;;;4998006;28;20441;-49
2021/05/28 07:32:20;;;;;;;4.53;3.90;;;13.20;99.90;;;;;;4997933;28;20853;-46
2021/05/28 07:34:47;;;;;;;4.03;3.63;;;13.30;99.90;;;;;;4996846;28;20446;-47
2021/05/28 07:37:13;;;;;;;4.57;4.07;;;13.40;99.90;;;;;;4997871;28;20454;-47
2021/05/28 07:39:40;;;;;;;5.80;4.30;;;13.40;99.90;;;;;;5000012;28;20438;-45
2021/05/28 07:42:07;;;;;;;8.70;4.70;;;13.40;99.90;;;;;;5000178;28;20477;-46
2021/05/28 07:44:33;;;;;;;4.73;4.17;;;13.40;99.90;;;;;;5000657;28;20830;-46
2021/05/28 07:47:00;;;;;;;5.73;4.27;;;13.40;99.90;;;;;;4994577;28;20466;-50
2021/05/28 07:49:26;;;;;;;6.17;4.13;;;13.50;99.90;;;;;;4980300;28;20466;-46
2021/05/28 07:51:53;;;;;;;7.93;3.60;;;13.50;99.90;;;;;;4986847;28;20438;-43
2021/05/28 07:54:19;;;;;;;5.17;4.67;;;13.80;99.90;;;;;;4998389;28;20773;-46
2021/05/28 07:56:47;;;;;;;4.70;3.40;;;14.00;99.90;;;;;;4999248;28;20450;-49
2021/05/28 07:59:13;;;;;;;10.43;4.43;;;14.20;99.90;;;;;;4999280;28;20446;-49
2021/05/28 08:01:39;;;;;;;5.00;3.60;;;14.20;99.90;;;;;;4998789;28;20477;-47
2021/05/28 08:04:06;;;;;;;5.37;4.47;;;14.20;99.90;;;;;;4992229;28;20763;-47
2021/05/28 08:06:32;;;;;;;4.83;3.90;;;14.30;99.90;;;;;;4978308;28;20455;-49
2021/05/28 08:08:58;;;;;;;15.93;3.90;;;14.50;99.90;;;;;;4978389;28;20533;-44
2021/05/28 08:11:25;;;;;;;4.20;3.53;;;14.80;99.90;;;;;;4978105;28;20459;-50
2021/05/28 08:13:52;;;;;;;5.83;4.97;;;14.90;99.90;;;;;;4978140;28;20473;-47
2021/05/28 08:16:18;;;;;;;5.90;4.43;;;15.10;99.90;;;;;;4978057;28;20451;-52
2021/05/28 08:18:44;;;;;;;4.83;4.37;;;15.10;99.90;;;;;;4977966;28;20498;-46
2021/05/28 08:21:11;;;;;;;3.40;3.10;;;14.80;99.90;;;;;;4977556;28;20483;-47
2021/05/28 08:23:38;;;;;;;4.00;2.93;;;14.80;99.90;;;;;;4978095;28;20512;-44
2021/05/28 08:26:05;;;;;;;3.77;2.93;;;14.90;99.90;;;;;;4977643;28;20474;-49
2021/05/28 08:28:34;;;;;;;3.60;2.77;;;15.20;99.90;;;;;;4977265;28;20471;-50
2021/05/28 08:31:01;;;;;;;3.30;2.70;;;15.70;99.90;;;;;;4977177;28;20486;-47
2021/05/28 08:33:27;;;;;;;2.60;2.40;;;16.40;99.90;;;;;;4977253;28;20447;-50
2021/05/28 08:35:53;;;;;;;3.40;3.00;;;17.30;99.90;;;;;;4977032;28;20446;-46
2021/05/28 08:38:20;;;;;;;4.60;2.70;;;18.00;99.90;;;;;;4976571;28;20446;-48
2021/05/28 08:40:46;;;;;;;2.40;2.20;;;18.40;99.90;;;;;;4984273;28;20811;-56
2021/05/28 08:43:13;;;;;;;3.70;2.63;;;18.40;99.90;;;;;;4996025;28;20454;-46
2021/05/28 08:45:42;;;;;;;4.10;2.83;;;18.40;99.90;;;;;;4990394;28;20485;-49
2021/05/28 08:48:11;;;;;;;3.07;2.30;;;18.40;99.90;;;;;;4976117;28;20450;-53
2021/05/28 08:50:38;;;;;;;3.23;2.93;;;18.20;99.90;;;;;;4976145;28;20447;-44
2021/05/28 08:53:05;;;;;;;2.63;2.43;;;18.10;99.90;;;;;;4975695;28;20945;-51
2021/05/28 08:55:33;;;;;;;3.40;2.93;;;18.00;99.90;;;;;;4975885;28;20462;-47
2021/05/28 08:58:03;;;;;;;3.27;2.97;;;18.00;99.90;;;;;;4976021;28;20450;-50
2021/05/28 09:00:29;;;;;;;3.20;2.93;;;17.60;99.90;;;;;;4975751;28;20463;-51
2021/05/28 09:02:55;;;;;;;7.03;3.37;;;17.40;99.90;;;;;;4976056;28;20773;-52
2021/05/28 09:05:24;;;;;;;2.93;2.63;;;17.50;99.90;;;;;;4976270;28;20457;-49
2021/05/28 09:07:58;;;;;;;2.43;2.20;;;17.90;99.90;;;;;;4975940;28;20478;-51
2021/05/28 09:10:33;;;;;;;2.90;2.70;;;18.60;99.90;;;;;;4975726;28;20435;-46
2021/05/28 09:13:14;;;;;;;3.50;2.73;;;19.50;99.90;;;;;;4982305;28;20461;-48
2021/05/28 09:15:43;;;;;;;7.13;2.37;;;20.20;99.90;;;;;;4992602;28;20458;-49
2021/05/28 09:18:09;;;;;;;3.10;2.50;;;20.10;99.90;;;;;;4994473;28;20466;-47
2021/05/28 09:20:37;;;;;;;3.23;3.00;;;20.00;99.90;;;;;;4994436;28;20449;-51
2021/05/28 09:23:15;;;;;;;2.60;2.30;;;20.10;99.90;;;;;;4994579;28;20461;-48
2021/05/28 09:25:56;;;;;;;2.60;2.40;;;19.80;99.90;;;;;;4994418;28;20489;-52
2021/05/28 09:28:23;;;;;;;4.10;3.13;;;19.40;99.90;;;;;;4994530;28;20460;-51
2021/05/28 09:30:55;;;;;;;2.03;1.83;;;18.90;99.90;;;;;;4994237;28;20493;-45
2021/05/28 09:33:21;;;;;;;2.10;1.90;;;18.60;99.90;;;;;;4987366;28;20663;-49
2021/05/28 09:35:51;;;;;;;1.73;1.57;;;18.00;99.90;;;;;;4991215;28;20520;-52
2021/05/28 09:38:22;;;;;;;2.73;1.60;;;17.20;99.90;;;;;;4994511;28;20461;-47
2021/05/28 09:40:49;;;;;;;1.50;1.30;;;16.50;99.90;;;;;;4994074;28;20488;-47
2021/05/28 09:43:22;;;;;;;1.97;1.43;;;16.10;99.90;;;;;;4994088;28;20460;-44
2021/05/28 09:45:49;;;;;;;1.40;1.30;;;16.00;99.90;;;;;;4993757;28;20460;-49
2021/05/28 09:48:27;;;;;;;1.87;1.03;;;15.80;99.90;;;;;;4993389;28;20495;-46
2021/05/28 09:50:57;;;;;;;1.13;0.97;;;15.70;99.90;;;;;;4991123;28;20458;-45
2021/05/28 09:53:33;;;;;;;2.27;1.00;;;15.80;99.90;;;;;;4993418;28;20977;-45
2021/05/28 09:56:20;;;;;;;1.20;1.00;;;15.90;99.90;;;;;;4991876;28;20915;-49
2021/05/28 09:58:57;;;;;;;1.20;0.80;;;16.00;99.90;;;;;;4993902;28;20446;-49
2021/05/28 10:01:23;;;;;;;2.13;1.20;;;16.00;99.90;;;;;;4993570;28;20481;-50
2021/05/28 10:04:01;;;;;;;2.17;1.10;;;16.10;99.90;;;;;;4987102;28;20469;-47
2021/05/28 10:06:29;;;;;;;68.87;10.67;;;16.20;99.90;;;;;;4994138;28;20509;-46
2021/05/28 10:08:58;;;;;;;5.50;2.73;;;16.40;99.90;;;;;;4993730;28;20553;-46
2021/05/28 10:11:26;;;;;;;2.13;1.43;;;16.50;99.90;;;;;;5005236;28;20765;-52
2021/05/28 10:13:54;;;;;;;5.50;1.40;;;16.70;99.90;;;;;;5015004;28;20449;-49
2021/05/28 10:16:21;;;;;;;2.20;1.37;;;16.90;99.90;;;;;;5014707;28;20476;-52
2021/05/28 10:18:49;;;;;;;4.50;1.37;;;17.10;99.90;;;;;;5017678;28;20449;-53
2021/05/28 10:21:16;;;;;;;2.67;1.50;;;17.30;99.90;;;;;;5018036;28;20585;-46
2021/05/28 10:23:44;;;;;;;3.40;1.90;;;17.50;99.90;;;;;;5018094;28;20480;-52
2021/05/28 10:26:11;;;;;;;5.30;1.90;;;17.80;99.90;;;;;;5016675;28;20473;-49
2021/05/28 10:28:42;;;;;;;4.03;2.23;;;18.20;99.90;;;;;;4998952;28;20442;-49
2021/05/28 10:31:10;;;;;;;2.60;1.53;;;18.50;99.90;;;;;;4997443;28;20465;-49
2021/05/28 10:33:42;;;;;;;2.67;1.90;;;18.80;99.90;;;;;;4997412;28;20450;-50
2021/05/28 10:36:10;;;;;;;2.77;1.90;;;19.10;99.90;;;;;;4997187;28;20442;-50
2021/05/28 10:38:43;;;;;;;1.63;1.50;;;19.20;99.90;;;;;;4997039;28;20481;-52
2021/05/28 10:41:39;;;;;;;2.00;1.83;;;19.10;99.90;;;;;;4996373;28;20474;-53
2021/05/28 10:44:22;;;;;;;1.87;1.37;;;18.80;99.90;;;;;;5003668;28;20474;-48
2021/05/28 10:46:54;;;;;;;1.40;1.30;;;18.40;99.90;;;;;;4999382;28;20765;-50
2021/05/28 10:49:36;;;;;;;1.60;1.40;;;18.00;99.90;;;;;;5000115;28;20434;-48
2021/05/28 10:52:07;;;;;;;2.67;1.80;;;17.70;99.90;;;;;;4998908;28;20504;-49
2021/05/28 10:54:36;;;;;;;2.33;1.87;;;17.20;99.90;;;;;;4999576;28;20426;-51
2021/05/28 10:57:50;;;;;;;1.90;1.53;;;16.80;99.90;;;;;;4997192;28;20461;-47
2021/05/28 11:00:29;;;;;;;3.30;1.70;;;16.50;99.90;;;;;;4997074;28;20520;-48
2021/05/28 11:03:01;;;;;;;3.30;1.93;;;16.20;99.90;;;;;;4997123;28;20505;-49
2021/05/28 11:05:49;;;;;;;2.97;2.50;;;16.00;99.90;;;;;;4995827;28;20502;-50
2021/05/28 11:08:46;;;;;;;2.80;2.10;;;15.80;99.90;;;;;;4997379;28;20487;-50
2021/05/28 11:11:46;;;;;;;2.80;2.00;;;15.60;99.90;;;;;;4996911;28;20458;-49
2021/05/28 11:14:17;;;;;;;4.33;2.13;;;15.50;99.90;;;;;;4994233;28;20828;-48
2021/05/28 11:17:14;;;;;;;8.57;2.37;;;15.50;99.90;;;;;;4996695;28;20450;-51
2021/05/28 11:20:01;;;;;;;1.87;1.40;;;15.50;99.90;;;;;;4991987;28;20937;-51
2021/05/28 11:22:36;;;;;;;2.20;1.80;;;15.80;99.90;;;;;;4996006;28;20820;-48
2021/05/28 11:25:07;;;;;;;2.03;1.60;;;16.10;99.90;;;;;;4995997;28;20452;-51
2021/05/28 11:27:51;;;;;;;3.47;1.73;;;16.30;99.90;;;;;;4995902;28;20956;-46
2021/05/28 11:30:44;;;;;;;3.80;2.00;;;16.50;99.90;;;;;;4996343;28;20438;-52
2021/05/28 11:33:49;;;;;;;3.30;2.67;;;16.60;99.90;;;;;;4997187;28;20546;-45
2021/05/28 11:36:39;;;;;;;3.77;2.80;;;16.60;99.90;;;;;;4996426;28;20422;-52
2021/05/28 11:39:09;;;;;;;3.33;2.63;;;16.60;99.90;;;;;;4999181;28;20438;-45
2021/05/28 11:41:46;;;;;;;2.93;2.03;;;16.50;99.90;;;;;;4999688;28;20826;-50
2021/05/28 11:44:14;;;;;;;3.47;3.17;;;16.40;99.90;;;;;;4995183;28;20437;-51
2021/05/28 11:46:43;;;;;;;5.43;2.50;;;16.20;99.90;;;;;;4995695;28;20450;-49
2021/05/28 11:49:09;;;;;;;5.20;2.83;;;16.10;99.90;;;;;;4976693;28;20446;-48
2021/05/28 11:51:35;;;;;;;3.30;2.40;;;16.10;99.90;;;;;;4976829;28;20833;-49
2021/05/28 11:54:20;;;;;;;3.10;2.40;;;16.30;99.90;;;;;;4977472;28;20458;-50
2021/05/28 11:56:53;;;;;;;5.40;2.50;;;16.50;99.90;;;;;;4977023;28;20446;-50
2021/05/28 11:59:20;;;;;;;2.73;2.40;;;16.90;99.90;;;;;;4977078;28;20457;-52
2021/05/28 12:01:47;;;;;;;2.53;2.20;;;17.30;99.90;;;;;;4976956;28;20493;-51
2021/05/28 12:04:17;;;;;;;6.50;3.90;;;17.60;99.90;;;;;;4976812;28;20466;-52
2021/05/28 12:06:44;;;;;;;3.03;2.33;;;17.80;99.90;;;;;;4977391;28;20950;-65
2021/05/28 12:09:10;;;;;;;3.53;2.10;;;18.00;99.90;;;;;;4977075;28;20458;-53
2021/05/28 12:11:37;;;;;;;3.80;2.23;;;18.10;99.90;;;;;;4984019;28;20446;-50
2021/05/28 12:14:04;;;;;;;5.03;2.90;;;18.30;99.90;;;;;;4996196;28;20453;-50
2021/05/28 12:16:35;;;;;;;3.13;2.17;;;18.40;99.90;;;;;;4996093;28;20454;-51
2021/05/28 12:19:03;;;;;;;2.77;2.43;;;18.60;99.90;;;;;;4992780;28;20458;-51
2021/05/28 12:21:29;;;;;;;2.03;1.70;;;18.70;99.90;;;;;;4997001;28;20485;-48
2021/05/28 12:23:56;;;;;;;2.10;1.90;;;18.90;99.90;;;;;;4996869;28;20434;-48
2021/05/28 12:26:24;;;;;;;2.33;1.97;;;19.00;99.90;;;;;;4996838;28;20497;-51
2021/05/28 12:28:54;;;;;;;15.10;2.40;;;19.20;99.90;;;;;;4997258;28;20477;-47
2021/05/28 12:31:22;;;;;;;2.27;1.80;;;19.30;99.90;;;;;;4997363;28;20940;-47
2021/05/28 12:33:52;;;;;;;4.27;1.93;;;19.20;99.90;;;;;;4997207;28;20450;-47
2021/05/28 12:36:26;;;;;;;2.13;1.60;;;19.00;99.90;;;;;;4997025;28;20442;-44
2021/05/28 12:38:53;;;;;;;2.57;2.00;;;19.00;99.90;;;;;;4990041;28;20446;-53
2021/05/28 12:41:22;;;;;;;2.03;1.63;;;18.90;99.90;;;;;;4996428;28;20489;-47
2021/05/28 12:43:51;;;;;;;4.37;2.20;;;18.60;99.90;;;;;;4997299;28;20461;-50
2021/05/28 12:46:22;;;;;;;2.63;1.70;;;18.30;99.90;;;;;;4997256;28;20458;-51
2021/05/28 12:48:50;;;;;;;3.23;2.07;;;18.00;99.90;;;;;;4996325;28;20446;-51
2021/05/28 12:51:18;;;;;;;2.70;2.27;;;17.50;99.90;;;;;;4997258;28;20441;-50
2021/05/28 12:53:47;;;;;;;5.40;2.60;;;17.10;99.90;;;;;;4997133;28;20447;-48
2021/05/28 12:56:21;;;;;;;3.37;2.00;;;16.70;99.90;;;;;;4997167;28;20784;-46